CheckWX is a tool to help pilots better visualize weather data.  It is not intended as a substitute for an official pre-flight weather briefing.

12:32:06 UTC

EPPO TAF
Poznań-Ławica Airport
Poznań, Poland
TAF EPPO 131130Z 1312/1412 13012KT 4500 BR BKN007 BECMG 1312/1314 7000 SCT013 BECMG 1403/1405 19014KT BKN012 TEMPO 1405/1411 4000 BR BKN005 OVC010

Dec-13@
12:00 UTC

Dec-13 @ 12:00 UTC

Dec-14@
12:00 UTC

Dec-14 @ 12:00 UTC

TAF EPPO 131130Z 1312/1412 13012KT 4500 BR BKN007
Wind
  • 130° at 12 KTS
Conditions
Mist
Cloud Levels
  • Broken at 700' AGL

Dec-13@
12:00 UTC

Dec-13 @ 12:00 UTC

Dec-14@
03:00 UTC

Dec-14 @ 03:00 UTC

BECMG 1312/1314 7000 SCT013

Becoming

Becoming Conditions expected by Fri, Dec 13, 2019 @ 14:00 UTC

Wind
  • 130° at 12 KTS
Conditions
Mist
Cloud Levels
  • Scattered at 1,300' AGL

Dec-14@
03:00 UTC

Dec-14 @ 03:00 UTC

Dec-14@
12:00 UTC

Dec-14 @ 12:00 UTC

BECMG 1403/1405 19014KT BKN012

Becoming

Becoming Conditions expected by Sat, Dec 14, 2019 @ 05:00 UTC

Wind
  • 190° at 14 KTS
Conditions
Mist
Cloud Levels
  • Broken at 1,200' AGL

Dec-14@
05:00 UTC

Dec-14 @ 05:00 UTC

Dec-14@
11:00 UTC

Dec-14 @ 11:00 UTC

TEMPO 1405/1411 4000 BR BKN005 OVC010

Temporary

Temporary Changes expected for less than half the time period

Conditions
Mist
Cloud Levels
  • Broken at 500' AGL
  • Overcast at 1,000' AGL